createdAt,value
2024-04-14T00:01:57.459Z,2.00
2024-04-14T00:04:24.580Z,2.70
2024-04-14T00:06:54.337Z,1.98
2024-04-14T00:09:21.399Z,2.40
2024-04-14T00:11:51.093Z,2.42
2024-04-14T00:14:18.126Z,2.50
2024-04-14T00:16:48.021Z,2.15
2024-04-14T00:19:17.783Z,2.05
2024-04-14T00:21:47.748Z,2.60
2024-04-14T00:24:15.210Z,2.80
2024-04-14T00:26:44.745Z,2.78
2024-04-14T00:29:11.659Z,2.42
2024-04-14T00:31:41.945Z,2.63
2024-04-14T00:34:11.562Z,3.20
2024-04-14T00:36:41.616Z,3.00
2024-04-14T00:39:08.585Z,2.40
2024-04-14T00:41:38.096Z,3.08
2024-04-14T00:44:05.319Z,2.50
2024-04-14T00:46:35.016Z,2.40
2024-04-14T00:49:03.500Z,2.83
2024-04-14T00:51:33.343Z,2.83
2024-04-14T00:54:01.298Z,2.33
2024-04-14T00:56:31.344Z,2.53
2024-04-14T00:58:58.363Z,3.00
2024-04-14T01:01:27.988Z,2.55
2024-04-14T01:03:55.313Z,2.85
2024-04-14T01:06:24.977Z,2.42
2024-04-14T01:08:51.968Z,3.00
2024-04-14T01:11:21.541Z,2.80
2024-04-14T01:13:48.787Z,3.10
2024-04-14T01:16:18.292Z,3.17
2024-04-14T01:18:45.311Z,2.60
2024-04-14T01:21:15.111Z,3.15
2024-04-14T01:23:42.040Z,2.60
2024-04-14T01:26:11.732Z,2.55
2024-04-14T01:28:38.689Z,2.40
2024-04-14T01:31:08.209Z,2.50
2024-04-14T01:33:35.128Z,2.88
2024-04-14T01:36:04.640Z,2.17
2024-04-14T01:38:31.940Z,2.72
2024-04-14T01:41:01.913Z,2.70
2024-04-14T01:43:29.366Z,2.10
2024-04-14T01:45:59.216Z,2.30
2024-04-14T01:48:26.404Z,2.85
2024-04-14T01:50:55.977Z,2.80
2024-04-14T01:53:22.939Z,3.08
2024-04-14T01:55:52.488Z,2.78
2024-04-14T01:58:19.428Z,3.15
2024-04-14T02:00:49.051Z,2.60
2024-04-14T02:03:16.046Z,3.20
2024-04-14T02:05:45.598Z,2.85
2024-04-14T02:08:12.492Z,2.63
2024-04-14T02:10:45.161Z,3.40
2024-04-14T02:13:12.122Z,2.28
2024-04-14T02:15:41.709Z,2.40
2024-04-14T02:18:08.878Z,2.55
2024-04-14T02:20:39.172Z,2.70
2024-04-14T02:23:06.101Z,3.10
2024-04-14T02:25:36.268Z,2.13
2024-04-14T02:28:04.309Z,2.28
2024-04-14T02:30:34.051Z,2.37
2024-04-14T02:33:01.949Z,2.15
2024-04-14T02:35:31.509Z,1.75
2024-04-14T02:37:58.431Z,1.42
2024-04-14T02:40:28.238Z,1.40
2024-04-14T02:42:55.220Z,1.20
2024-04-14T02:45:24.885Z,1.30
2024-04-14T02:47:51.877Z,1.25
2024-04-14T02:50:21.416Z,1.10
2024-04-14T02:52:48.389Z,1.20
2024-04-14T02:55:17.980Z,0.80
2024-04-14T02:57:47.424Z,1.00
2024-04-14T03:00:17.074Z,1.20
2024-04-14T03:02:44.090Z,1.13
2024-04-14T03:05:13.626Z,1.23
2024-04-14T03:07:40.513Z,0.93
2024-04-14T03:10:10.405Z,1.00
2024-04-14T03:12:37.372Z,0.90
2024-04-14T03:15:07.125Z,2.05
2024-04-14T03:17:34.470Z,0.88
2024-04-14T03:20:03.977Z,1.30
2024-04-14T03:22:30.965Z,1.50
2024-04-14T03:25:00.546Z,0.82
2024-04-14T03:27:27.523Z,1.20
2024-04-14T03:29:57.025Z,0.70
2024-04-14T03:32:23.902Z,1.00
2024-04-14T03:34:56.419Z,1.00
2024-04-14T03:37:25.914Z,0.80
2024-04-14T03:39:55.597Z,0.88
2024-04-14T03:42:25.191Z,0.70
2024-04-14T03:44:54.706Z,1.20
2024-04-14T03:47:24.305Z,1.00
2024-04-14T03:49:53.815Z,1.00
2024-04-14T03:52:20.713Z,0.80
2024-04-14T03:54:50.294Z,0.90
2024-04-14T03:57:17.397Z,1.00
2024-04-14T03:59:47.290Z,1.17
2024-04-14T04:02:14.289Z,1.05
2024-04-14T04:04:43.961Z,0.80
2024-04-14T04:07:10.913Z,0.90
2024-04-14T04:09:40.492Z,1.30
2024-04-14T04:12:07.538Z,0.85
2024-04-14T04:14:37.094Z,1.10
2024-04-14T04:17:04.169Z,1.25
2024-04-14T04:19:33.960Z,1.30
2024-04-14T04:22:00.987Z,0.80
2024-04-14T04:24:31.007Z,1.20
2024-04-14T04:26:58.028Z,1.13
2024-04-14T04:29:29.113Z,0.90
2024-04-14T04:31:56.401Z,1.00
2024-04-14T04:34:26.680Z,1.08
2024-04-14T04:36:53.761Z,1.02
2024-04-14T04:39:23.515Z,0.90
2024-04-14T04:41:50.470Z,1.90
2024-04-14T04:44:20.035Z,1.20
2024-04-14T04:46:46.963Z,1.00
2024-04-14T04:49:16.576Z,1.00
2024-04-14T04:51:43.535Z,1.60
2024-04-14T04:54:13.268Z,1.15
2024-04-14T04:56:40.274Z,0.90
2024-04-14T04:59:10.999Z,1.08
2024-04-14T05:01:38.164Z,1.42
2024-04-14T05:04:09.776Z,1.20
2024-04-14T05:06:36.819Z,1.20
2024-04-14T05:09:06.912Z,1.65
2024-04-14T05:11:33.824Z,1.67
2024-04-14T05:14:03.423Z,1.40
2024-04-14T05:16:30.364Z,1.20
2024-04-14T05:18:59.928Z,1.40
2024-04-14T05:21:26.956Z,1.25
2024-04-14T05:23:56.533Z,1.35
2024-04-14T05:26:23.448Z,1.23
2024-04-14T05:28:52.960Z,0.95
2024-04-14T05:31:19.972Z,1.10
2024-04-14T05:33:55.608Z,1.20
2024-04-14T05:36:22.602Z,1.48
2024-04-14T05:38:52.263Z,1.30
2024-04-14T05:41:19.387Z,1.48
2024-04-14T05:43:49.085Z,1.42
2024-04-14T05:46:16.376Z,1.95
2024-04-14T05:48:45.970Z,1.35
2024-04-14T05:51:12.951Z,1.30
2024-04-14T05:53:42.627Z,1.00
2024-04-14T05:56:09.584Z,1.80
2024-04-14T05:58:39.634Z,1.85
2024-04-14T06:01:10.051Z,1.63
2024-04-14T06:03:39.913Z,1.55
2024-04-14T06:06:06.934Z,2.00
2024-04-14T06:08:36.505Z,1.20
2024-04-14T06:11:03.551Z,1.30
2024-04-14T06:13:33.912Z,1.15
2024-04-14T06:16:00.886Z,1.02
2024-04-14T06:18:30.487Z,1.38
2024-04-14T06:20:57.469Z,1.40
2024-04-14T06:23:27.328Z,1.20
2024-04-14T06:25:54.254Z,1.05
2024-04-14T06:28:23.997Z,2.00
2024-04-14T06:30:51.086Z,1.20
2024-04-14T06:33:21.759Z,1.45
2024-04-14T06:35:48.832Z,1.27
2024-04-14T06:38:18.687Z,1.00
2024-04-14T06:40:48.877Z,1.23
2024-04-14T06:43:18.555Z,1.70
2024-04-14T06:45:50.330Z,1.40
2024-04-14T06:48:19.982Z,1.30
2024-04-14T06:50:46.958Z,1.55
2024-04-14T06:53:19.310Z,1.20
2024-04-14T06:55:47.584Z,1.20
2024-04-14T06:58:17.606Z,1.20
2024-04-14T07:00:44.675Z,1.40
2024-04-14T07:03:15.580Z,1.05
2024-04-14T07:05:42.570Z,1.95
2024-04-14T07:08:12.160Z,1.00
2024-04-14T07:10:40.347Z,1.40
2024-04-14T07:13:11.036Z,1.55
2024-04-14T07:15:37.964Z,1.00
2024-04-14T07:18:07.940Z,0.98
2024-04-14T07:20:39.433Z,0.88
2024-04-14T07:23:09.115Z,0.98
2024-04-14T07:25:36.060Z,1.10
2024-04-14T07:28:05.655Z,0.77
2024-04-14T07:30:32.628Z,1.10
2024-04-14T07:33:02.323Z,1.20
2024-04-14T07:35:29.383Z,1.30
2024-04-14T07:37:58.888Z,1.05
2024-04-14T07:40:25.991Z,1.17
2024-04-14T07:42:58.214Z,1.10
2024-04-14T07:45:25.167Z,1.58
2024-04-14T07:47:54.889Z,1.10
2024-04-14T07:50:21.833Z,1.00
2024-04-14T07:52:51.385Z,1.15
2024-04-14T07:55:18.487Z,1.00
2024-04-14T07:57:49.145Z,1.00
2024-04-14T08:00:16.238Z,1.10
2024-04-14T08:02:46.480Z,1.08
2024-04-14T08:05:13.543Z,1.73
2024-04-14T08:07:43.268Z,0.85
2024-04-14T08:10:10.766Z,1.67
2024-04-14T08:12:40.736Z,1.15
2024-04-14T08:15:07.867Z,1.90
2024-04-14T08:17:37.484Z,1.00
2024-04-14T08:20:04.666Z,0.82
2024-04-14T08:22:34.327Z,0.80
2024-04-14T08:25:01.496Z,1.25
2024-04-14T08:27:32.119Z,1.58
2024-04-14T08:29:59.123Z,0.90
2024-04-14T08:32:29.380Z,0.90
2024-04-14T08:34:57.123Z,0.93
2024-04-14T08:37:26.679Z,1.13
2024-04-14T08:39:53.815Z,0.90
2024-04-14T08:42:24.111Z,1.85
2024-04-14T08:44:52.606Z,1.50
2024-04-14T08:47:23.466Z,1.70
2024-04-14T08:49:51.720Z,1.25
2024-04-14T08:52:24.389Z,1.10
2024-04-14T08:54:51.434Z,1.17
2024-04-14T08:57:22.062Z,1.20
2024-04-14T08:59:51.078Z,1.20
2024-04-14T09:02:22.068Z,1.30
2024-04-14T09:04:51.971Z,1.02
2024-04-14T09:07:21.529Z,1.00
2024-04-14T09:09:50.646Z,1.15
2024-04-14T09:12:21.271Z,1.58
2024-04-14T09:14:49.375Z,1.35
2024-04-14T09:17:19.351Z,1.50
2024-04-14T09:19:46.488Z,1.58
2024-04-14T09:22:19.087Z,1.10
2024-04-14T09:24:46.195Z,1.17
2024-04-14T09:27:15.826Z,0.80
2024-04-14T09:29:42.904Z,1.10
2024-04-14T09:32:12.607Z,0.90
2024-04-14T09:34:39.904Z,1.10
2024-04-14T09:37:13.786Z,1.67
2024-04-14T09:39:42.687Z,1.13
2024-04-14T09:44:41.106Z,1.00
2024-04-14T09:49:40.385Z,1.48
2024-04-14T09:54:41.263Z,1.25
2024-04-14T09:57:10.842Z,1.70
2024-04-14T09:59:37.832Z,1.00
2024-04-14T10:02:13.173Z,1.55
2024-04-14T10:04:44.505Z,0.90
2024-04-14T10:07:16.120Z,1.20
2024-04-14T10:09:49.077Z,1.20
2024-04-14T10:12:27.985Z,0.90
2024-04-14T10:14:55.747Z,1.33
2024-04-14T10:17:25.443Z,1.10
2024-04-14T10:19:56.575Z,0.90
2024-04-14T10:22:33.697Z,0.90
2024-04-14T10:25:01.263Z,0.52
2024-04-14T10:27:34.656Z,1.08
2024-04-14T10:30:04.026Z,1.08
2024-04-14T10:32:34.236Z,0.80
2024-04-14T10:35:01.229Z,0.90
2024-04-14T10:37:31.923Z,0.70
2024-04-14T10:39:59.038Z,0.70
2024-04-14T10:42:28.612Z,0.85
2024-04-14T10:44:55.562Z,0.82
2024-04-14T10:47:25.556Z,0.82
2024-04-14T10:49:52.742Z,1.20
2024-04-14T10:52:22.543Z,1.73
2024-04-14T10:54:49.472Z,1.08
2024-04-14T10:57:19.041Z,1.20
2024-04-14T10:59:46.245Z,1.00
2024-04-14T11:02:15.847Z,1.50
2024-04-14T11:04:43.736Z,1.00
2024-04-14T11:07:13.599Z,0.87
2024-04-14T11:09:41.129Z,2.50
2024-04-14T11:12:11.256Z,3.90
2024-04-14T11:14:38.296Z,2.25
2024-04-14T11:17:17.984Z,1.10
2024-04-14T11:19:48.091Z,0.93
2024-04-14T11:22:22.363Z,0.60
2024-04-14T11:24:52.787Z,0.80
2024-04-14T11:27:23.585Z,0.90
2024-04-14T11:29:51.344Z,0.98
2024-04-14T11:32:37.015Z,1.10
2024-04-14T11:35:06.934Z,0.90
2024-04-14T11:37:38.526Z,1.17
2024-04-14T11:40:11.398Z,0.70
2024-04-14T11:42:41.750Z,1.08
2024-04-14T11:45:12.156Z,1.60
2024-04-14T11:47:41.762Z,1.23
2024-04-14T11:50:10.138Z,0.90
2024-04-14T11:52:39.844Z,0.70
2024-04-14T11:55:08.740Z,1.13
2024-04-14T11:57:39.411Z,0.88
2024-04-14T12:00:07.193Z,0.80
2024-04-14T12:02:36.781Z,1.10
2024-04-14T12:05:03.966Z,1.73
2024-04-14T12:07:33.512Z,1.00
2024-04-14T12:10:00.569Z,0.90
2024-04-14T12:12:30.542Z,0.95
2024-04-14T12:14:57.454Z,1.00
2024-04-14T12:17:28.104Z,1.10
2024-04-14T12:19:55.026Z,1.00
2024-04-14T12:22:25.629Z,1.00
2024-04-14T12:24:53.700Z,1.00
2024-04-14T12:27:23.431Z,1.05
2024-04-14T12:29:50.416Z,1.20
2024-04-14T12:32:20.229Z,1.10
2024-04-14T12:34:47.208Z,0.90
2024-04-14T12:37:16.718Z,1.10
2024-04-14T12:39:43.714Z,1.00
2024-04-14T12:42:13.350Z,1.13
2024-04-14T12:44:40.829Z,1.20
2024-04-14T12:47:10.375Z,1.00
2024-04-14T12:49:37.442Z,1.40
2024-04-14T12:52:07.406Z,1.38
2024-04-14T12:54:34.394Z,0.90
2024-04-14T12:57:04.014Z,1.00
2024-04-14T12:59:31.001Z,1.13
2024-04-14T13:02:00.533Z,1.00
2024-04-14T13:04:27.578Z,1.00
2024-04-14T13:06:57.176Z,1.20
2024-04-14T13:09:24.148Z,1.10
2024-04-14T13:11:53.980Z,1.10
2024-04-14T13:14:20.972Z,1.00
2024-04-14T13:16:50.546Z,1.10
2024-04-14T13:19:17.570Z,1.15
2024-04-14T13:21:47.197Z,1.20
2024-04-14T13:24:14.119Z,1.20
2024-04-14T13:26:52.586Z,1.23
2024-04-14T13:29:19.556Z,0.85
2024-04-14T13:31:49.642Z,1.17
2024-04-14T13:34:16.638Z,1.00
2024-04-14T13:36:46.279Z,1.23
2024-04-14T13:39:13.266Z,0.98
2024-04-14T13:41:42.933Z,1.10
2024-04-14T13:44:09.970Z,1.02
2024-04-14T13:46:40.413Z,1.30
2024-04-14T13:49:07.458Z,1.10
2024-04-14T13:51:37.085Z,1.38
2024-04-14T13:54:05.800Z,0.80
2024-04-14T13:59:02.240Z,1.20
2024-04-14T14:01:31.931Z,1.20
2024-04-14T14:03:59.046Z,1.10
2024-04-14T14:06:29.052Z,0.95
2024-04-14T14:08:56.189Z,1.25
2024-04-14T14:11:25.967Z,0.93
2024-04-14T14:13:54.456Z,1.13
2024-04-14T14:16:24.154Z,1.20
2024-04-14T14:18:51.312Z,1.17
2024-04-14T14:21:20.915Z,1.20
2024-04-14T14:23:47.890Z,1.13
2024-04-14T14:26:18.074Z,1.38
2024-04-14T14:28:44.994Z,1.17
2024-04-14T14:31:15.326Z,1.45
2024-04-14T14:34:01.129Z,1.38
2024-04-14T14:36:31.050Z,1.20
2024-04-14T14:39:01.307Z,1.20
2024-04-14T14:41:31.214Z,1.40
2024-04-14T14:44:01.160Z,1.30
2024-04-14T14:46:30.713Z,1.73
2024-04-14T14:49:00.108Z,1.40
2024-04-14T14:51:32.540Z,1.50
2024-04-14T14:53:59.479Z,1.27
2024-04-14T14:56:29.009Z,1.25
2024-04-14T14:58:55.944Z,1.35
2024-04-14T15:01:25.586Z,1.40
2024-04-14T15:03:57.090Z,1.42
2024-04-14T15:06:29.625Z,1.42
2024-04-14T15:08:57.282Z,1.40
2024-04-14T15:11:26.870Z,1.80
2024-04-14T15:13:55.909Z,1.38
2024-04-14T15:16:28.040Z,1.40
2024-04-14T15:18:55.076Z,1.55
2024-04-14T15:21:24.858Z,0.98
2024-04-14T15:23:51.862Z,1.40
2024-04-14T15:26:22.544Z,1.05
2024-04-14T15:28:49.479Z,1.40
2024-04-14T15:31:19.054Z,1.38
2024-04-14T15:33:46.209Z,1.50
2024-04-14T15:36:15.959Z,1.40
2024-04-14T15:38:43.238Z,1.17
2024-04-14T15:41:13.528Z,1.20
2024-04-14T15:43:41.919Z,1.33
2024-04-14T15:46:15.696Z,1.75
2024-04-14T15:48:42.739Z,2.22
2024-04-14T15:51:18.524Z,1.52
2024-04-14T15:53:47.973Z,1.40
2024-04-14T15:56:17.540Z,1.92
2024-04-14T15:58:44.470Z,1.48
2024-04-14T16:01:14.181Z,1.80
2024-04-14T16:03:41.676Z,1.80
2024-04-14T16:06:11.347Z,1.52
2024-04-14T16:08:38.311Z,1.65
2024-04-14T16:11:09.494Z,1.70
2024-04-14T16:13:36.727Z,1.25
2024-04-14T16:16:15.367Z,1.30
2024-04-14T16:21:16.785Z,1.52
2024-04-14T16:23:48.829Z,1.20
2024-04-14T16:26:18.782Z,1.40
2024-04-14T16:28:45.876Z,1.00
2024-04-14T16:31:16.749Z,1.27
2024-04-14T16:33:44.526Z,1.10
2024-04-14T16:36:14.753Z,1.35
2024-04-14T16:38:41.926Z,1.23
2024-04-14T16:41:11.631Z,1.85
2024-04-14T16:43:38.894Z,1.98
2024-04-14T16:46:08.932Z,1.10
2024-04-14T16:48:36.230Z,1.17
2024-04-14T16:51:06.129Z,1.40
2024-04-14T16:53:33.196Z,1.33
2024-04-14T16:56:02.725Z,1.30
2024-04-14T16:58:30.765Z,1.20
2024-04-14T17:01:00.486Z,1.50
2024-04-14T17:03:27.500Z,1.85
2024-04-14T17:05:58.126Z,1.20
2024-04-14T17:08:25.136Z,1.40
2024-04-14T17:10:54.729Z,1.23
2024-04-14T17:13:21.976Z,1.23
2024-04-14T17:15:51.966Z,1.30
2024-04-14T17:18:19.290Z,1.10
2024-04-14T17:20:50.760Z,1.25
2024-04-14T17:23:17.689Z,1.27
2024-04-14T17:25:47.280Z,0.95
2024-04-14T17:28:14.284Z,1.30
2024-04-14T17:30:43.939Z,1.20
2024-04-14T17:33:10.985Z,1.25
2024-04-14T17:35:40.592Z,1.00
2024-04-14T17:38:07.504Z,1.20
2024-04-14T17:40:37.059Z,1.88
2024-04-14T17:43:04.251Z,1.70
2024-04-14T17:45:34.006Z,1.25
2024-04-14T17:48:01.148Z,1.17
2024-04-14T17:50:32.510Z,1.00
2024-04-14T17:52:59.499Z,1.33
2024-04-14T17:55:29.043Z,1.08
2024-04-14T17:57:56.011Z,1.52
2024-04-14T18:00:25.586Z,1.10
2024-04-14T18:02:52.600Z,1.30
2024-04-14T18:05:22.145Z,1.70
2024-04-14T18:07:49.077Z,1.88
2024-04-14T18:10:23.478Z,2.47
2024-04-14T18:12:51.025Z,2.67
2024-04-14T18:15:21.202Z,1.70
2024-04-14T18:17:48.133Z,1.25
2024-04-14T18:20:17.798Z,1.10
2024-04-14T18:22:44.770Z,0.88
2024-04-14T18:25:14.454Z,0.95
2024-04-14T18:27:41.580Z,1.17
2024-04-14T18:30:12.571Z,0.73
2024-04-14T18:32:40.821Z,2.90
2024-04-14T18:35:10.712Z,2.10
2024-04-14T18:37:37.836Z,2.08
2024-04-14T18:40:08.309Z,2.33
2024-04-14T18:42:35.292Z,1.60
2024-04-14T18:45:06.304Z,1.48
2024-04-14T18:47:33.366Z,1.30
2024-04-14T18:50:02.949Z,1.55
2024-04-14T18:52:31.308Z,2.05
2024-04-14T18:55:00.990Z,1.40
2024-04-14T18:57:29.320Z,1.80
2024-04-14T19:00:00.034Z,1.00
2024-04-14T19:02:27.022Z,1.00
2024-04-14T19:04:56.539Z,1.00
2024-04-14T19:07:23.487Z,0.95
2024-04-14T19:09:53.077Z,1.40
2024-04-14T19:12:21.266Z,1.05
2024-04-14T19:14:50.789Z,1.30
2024-04-14T19:17:20.263Z,1.30
2024-04-14T19:19:49.873Z,1.17
2024-04-14T19:22:16.871Z,1.05
2024-04-14T19:24:47.942Z,1.13
2024-04-14T19:27:14.959Z,1.10
2024-04-14T19:29:44.780Z,0.98
2024-04-14T19:32:11.678Z,1.30
2024-04-14T19:34:41.347Z,1.40
2024-04-14T19:37:08.363Z,1.73
2024-04-14T19:39:39.460Z,0.93
2024-04-14T19:42:06.767Z,1.10
2024-04-14T19:44:36.339Z,1.17
2024-04-14T19:47:04.385Z,2.38
2024-04-14T19:49:33.988Z,3.00
2024-04-14T19:52:01.054Z,1.75
2024-04-14T19:54:30.680Z,1.80
2024-04-14T19:56:57.574Z,1.60
2024-04-14T19:59:27.051Z,2.15
2024-04-14T20:01:54.179Z,5.30
2024-04-14T20:04:23.993Z,4.95
2024-04-14T20:06:52.049Z,3.72
2024-04-14T20:09:21.813Z,2.57
2024-04-14T20:11:48.722Z,2.45
2024-04-14T20:14:20.183Z,2.67
2024-04-14T20:16:47.430Z,1.52
2024-04-14T20:19:17.298Z,1.50
2024-04-14T20:21:44.364Z,1.80
2024-04-14T20:24:13.933Z,1.30
2024-04-14T20:26:40.851Z,1.10
2024-04-14T20:29:10.530Z,1.02
2024-04-14T20:31:37.594Z,0.90
2024-04-14T20:34:09.923Z,1.10
2024-04-14T20:36:37.096Z,1.48
2024-04-14T20:39:07.732Z,1.10
2024-04-14T20:41:34.643Z,1.00
2024-04-14T20:44:04.331Z,0.95
2024-04-14T20:46:33.561Z,1.02
2024-04-14T20:49:03.310Z,1.13
2024-04-14T20:51:30.251Z,1.77
2024-04-14T20:53:59.846Z,1.10
2024-04-14T20:56:28.124Z,0.85
2024-04-14T20:58:57.649Z,1.10
2024-04-14T21:01:24.804Z,1.40
2024-04-14T21:03:56.874Z,1.30
2024-04-14T21:06:23.866Z,1.20
2024-04-14T21:08:53.770Z,1.65
2024-04-14T21:11:20.794Z,2.22
2024-04-14T21:13:50.452Z,1.10
2024-04-14T21:16:17.457Z,1.00
2024-04-14T21:18:48.285Z,1.42
2024-04-14T21:21:15.289Z,1.50
2024-04-14T21:23:45.088Z,1.70
2024-04-14T21:26:12.320Z,1.55
2024-04-14T21:28:42.153Z,1.60
2024-04-14T21:31:09.155Z,1.60
2024-04-14T21:33:39.007Z,1.40
2024-04-14T21:36:12.032Z,1.40
2024-04-14T21:38:41.569Z,1.40
2024-04-14T21:41:09.950Z,1.50
2024-04-14T21:43:39.778Z,1.70
2024-04-14T21:46:06.707Z,1.40
2024-04-14T21:48:36.316Z,1.50
2024-04-14T21:51:07.521Z,1.50
2024-04-14T21:53:40.703Z,1.42
2024-04-14T21:56:07.786Z,1.30
2024-04-14T21:58:38.666Z,1.27
2024-04-14T22:01:15.936Z,1.23
2024-04-14T22:03:55.231Z,1.52
2024-04-14T22:06:28.355Z,1.70
2024-04-14T22:08:57.974Z,1.70
2024-04-14T22:11:24.950Z,1.90
2024-04-14T22:13:54.878Z,1.77
2024-04-14T22:16:22.145Z,1.40
2024-04-14T22:18:51.808Z,1.30
2024-04-14T22:21:18.785Z,1.60
2024-04-14T22:23:48.286Z,1.58
2024-04-14T22:26:15.227Z,1.40
2024-04-14T22:28:44.829Z,1.60
2024-04-14T22:31:11.790Z,1.77
2024-04-14T22:33:41.412Z,1.58
2024-04-14T22:36:08.584Z,1.65
2024-04-14T22:38:38.589Z,1.33
2024-04-14T22:41:06.660Z,1.75
2024-04-14T22:43:36.274Z,1.80
2024-04-14T22:46:03.405Z,1.60
2024-04-14T22:48:33.040Z,1.30
2024-04-14T22:50:59.923Z,1.38
2024-04-14T22:53:29.474Z,1.38
2024-04-14T22:55:56.458Z,1.40
2024-04-14T22:58:26.044Z,1.73
2024-04-14T23:00:53.154Z,1.50
2024-04-14T23:03:22.820Z,1.48
2024-04-14T23:05:49.827Z,1.40
2024-04-14T23:08:19.372Z,1.40
2024-04-14T23:10:46.323Z,2.25
2024-04-14T23:13:16.015Z,1.48
2024-04-14T23:15:43.092Z,1.60
2024-04-14T23:18:12.717Z,1.50
2024-04-14T23:20:39.699Z,1.30
2024-04-14T23:23:09.281Z,2.22
2024-04-14T23:25:36.219Z,1.30
2024-04-14T23:28:06.024Z,1.52
2024-04-14T23:30:32.951Z,1.77
2024-04-14T23:33:02.558Z,1.40
2024-04-14T23:35:29.495Z,1.85
2024-04-14T23:37:59.113Z,1.85
2024-04-14T23:40:26.010Z,1.70
2024-04-14T23:42:55.596Z,2.30
2024-04-14T23:45:22.563Z,2.08
2024-04-14T23:47:52.359Z,2.40
2024-04-14T23:50:19.517Z,2.38
2024-04-14T23:52:49.972Z,2.00
2024-04-14T23:55:17.040Z,2.60
2024-04-14T23:57:48.301Z,2.10
